createdAt,value
2022-09-24T00:02:23.012Z,101081.56
2022-09-24T00:04:51.276Z,101083.41
2022-09-24T00:07:19.546Z,101085.03
2022-09-24T00:09:48.314Z,101083.38
2022-09-24T00:12:18.893Z,101078.16
2022-09-24T00:14:47.099Z,101078.94
2022-09-24T00:17:15.295Z,101085.91
2022-09-24T00:19:44.423Z,101077.91
2022-09-24T00:22:12.767Z,101081.31
2022-09-24T00:24:58.706Z,101076.13
2022-09-24T00:27:29.089Z,101076.72
2022-09-24T00:29:57.766Z,101081.25
2022-09-24T00:32:26.152Z,101037.31
2022-09-24T00:34:54.401Z,101072.38
2022-09-24T00:37:22.751Z,101074.94
2022-09-24T00:39:51.086Z,101075.88
2022-09-24T00:42:20.897Z,101056.56
2022-09-24T00:44:57.785Z,101066.09
2022-09-24T00:47:41.659Z,101077.38
2022-09-24T00:50:18.766Z,101051.94
2022-09-24T00:52:54.628Z,101069.44
2022-09-24T00:55:24.839Z,101071.22
2022-09-24T00:57:57.653Z,101057.00
2022-09-24T01:00:27.876Z,101057.00
2022-09-24T01:03:03.040Z,101066.69
2022-09-24T01:05:31.485Z,101063.13
2022-09-24T01:08:00.184Z,101057.66
2022-09-24T01:10:48.866Z,101053.06
2022-09-24T01:13:40.042Z,101058.28
2022-09-24T01:16:21.473Z,101053.72
2022-09-24T01:18:58.044Z,101064.84
2022-09-24T01:21:36.690Z,101056.69
2022-09-24T01:24:48.930Z,101047.91
2022-09-24T01:27:21.983Z,101022.47
2022-09-24T01:30:05.795Z,101043.53
2022-09-24T01:32:40.182Z,101035.56
2022-09-24T01:35:16.039Z,100946.09
2022-09-24T01:37:49.308Z,101010.28
2022-09-24T01:40:19.697Z,101026.66
2022-09-24T01:42:49.321Z,101023.06
2022-09-24T01:45:19.983Z,101024.75
2022-09-24T01:47:48.422Z,100997.63
2022-09-24T01:50:20.130Z,101021.97
2022-09-24T01:52:54.703Z,101012.84
2022-09-24T01:55:28.712Z,101009.50
2022-09-24T01:58:02.829Z,101009.94
2022-09-24T02:00:32.775Z,101006.28
2022-09-24T02:03:12.640Z,101002.50
2022-09-24T02:05:47.399Z,101002.88
2022-09-24T02:08:20.815Z,100991.25
2022-09-24T02:10:55.829Z,100991.25
2022-09-24T02:13:27.990Z,100992.09
2022-09-24T02:16:01.466Z,100987.78
2022-09-24T02:18:34.383Z,100988.78
2022-09-24T02:21:14.799Z,100983.41
2022-09-24T02:23:48.212Z,100869.53
2022-09-24T02:26:16.581Z,100981.81
2022-09-24T02:28:45.535Z,100978.22
2022-09-24T02:31:20.216Z,100876.47
2022-09-24T02:34:09.541Z,100998.25
2022-09-24T02:36:39.754Z,100986.28
2022-09-24T02:39:08.003Z,100982.56
2022-09-24T02:41:37.193Z,100976.38
2022-09-24T02:44:05.631Z,100983.41
2022-09-24T02:46:35.322Z,100980.66
2022-09-24T02:49:03.814Z,100986.06
2022-09-24T02:51:32.241Z,100992.91
2022-09-24T02:54:01.424Z,100988.41
2022-09-24T02:56:29.840Z,100990.28
2022-09-24T02:58:58.507Z,100984.66
2022-09-24T03:01:27.028Z,100968.63
2022-09-24T03:03:57.115Z,100986.72
2022-09-24T03:06:25.807Z,100987.59
2022-09-24T03:08:54.776Z,100985.88
2022-09-24T03:11:24.412Z,100985.78
2022-09-24T03:13:53.072Z,100968.84
2022-09-24T03:16:22.015Z,100989.38
2022-09-24T03:18:50.402Z,100976.13
2022-09-24T03:21:22.531Z,100981.63
2022-09-24T03:23:51.599Z,100979.75
2022-09-24T03:26:19.840Z,100974.31
2022-09-24T03:28:48.137Z,100942.78
2022-09-24T03:31:15.573Z,100965.34
2022-09-24T03:33:46.478Z,100968.72
2022-09-24T03:36:17.868Z,100964.03
2022-09-24T03:38:49.471Z,100980.81
2022-09-24T03:41:18.770Z,100943.78
2022-09-24T03:43:47.044Z,100946.34
2022-09-24T03:46:17.223Z,100969.00
2022-09-24T03:48:47.211Z,100973.22
2022-09-24T03:51:18.671Z,100980.09
2022-09-24T03:53:49.257Z,100981.91
2022-09-24T03:56:17.575Z,100982.56
2022-09-24T03:58:47.467Z,100976.94
2022-09-24T04:01:21.733Z,100976.81
2022-09-24T04:03:51.137Z,100973.97
2022-09-24T04:06:23.621Z,100954.63
2022-09-24T04:08:55.752Z,100974.63
2022-09-24T04:11:24.394Z,100972.91
2022-09-24T04:13:52.915Z,100967.44
2022-09-24T04:16:21.867Z,100974.41
2022-09-24T04:18:50.971Z,100975.41
2022-09-24T04:21:19.304Z,100979.69
2022-09-24T04:23:47.613Z,100984.69
2022-09-24T04:26:17.310Z,100981.09
2022-09-24T04:28:45.538Z,100972.06
2022-09-24T04:31:13.808Z,100981.69
2022-09-24T04:33:42.297Z,100979.84
2022-09-24T04:36:10.632Z,100983.34
2022-09-24T04:38:39.066Z,100967.34
2022-09-24T04:41:08.639Z,100994.50
2022-09-24T04:43:38.278Z,100995.25
2022-09-24T04:46:09.294Z,101000.03
2022-09-24T04:48:38.351Z,100994.50
2022-09-24T04:51:07.566Z,100991.94
2022-09-24T04:53:37.207Z,100996.06
2022-09-24T04:56:06.015Z,100996.78
2022-09-24T04:58:34.320Z,100998.44
2022-09-24T05:01:04.981Z,100993.03
2022-09-24T05:03:33.479Z,100980.16
2022-09-24T05:06:02.283Z,100958.88
2022-09-24T05:08:30.495Z,100991.06
2022-09-24T05:10:58.807Z,100989.06
2022-09-24T05:13:27.480Z,100995.31
2022-09-24T05:15:56.383Z,100995.34
2022-09-24T05:18:26.984Z,100986.59
2022-09-24T05:20:56.178Z,100991.69
2022-09-24T05:23:24.800Z,100990.31
2022-09-24T05:26:10.406Z,100993.72
2022-09-24T05:28:40.294Z,100992.75
2022-09-24T05:31:09.156Z,100999.00
2022-09-24T05:33:39.184Z,100988.66
2022-09-24T05:36:07.841Z,100998.28
2022-09-24T05:38:39.775Z,100997.34
2022-09-24T05:41:10.108Z,101004.41
2022-09-24T05:43:38.654Z,101003.75
2022-09-24T05:46:08.151Z,101001.09
2022-09-24T05:48:38.068Z,101002.75
2022-09-24T05:51:06.986Z,101008.09
2022-09-24T05:53:35.443Z,101004.69
2022-09-24T05:56:03.746Z,101014.38
2022-09-24T05:58:32.534Z,101011.88
2022-09-24T06:01:01.710Z,101013.84
2022-09-24T06:03:31.806Z,101012.91
2022-09-24T06:06:02.399Z,101018.97
2022-09-24T06:08:32.782Z,101017.13
2022-09-24T06:11:02.541Z,101026.19
2022-09-24T06:13:31.594Z,101022.41
2022-09-24T06:16:02.669Z,101024.31
2022-09-24T06:18:31.409Z,101041.06
2022-09-24T06:21:04.930Z,101042.88
2022-09-24T06:23:33.404Z,101040.00
2022-09-24T06:26:01.895Z,101035.69
2022-09-24T06:28:30.386Z,101037.53
2022-09-24T06:31:02.258Z,101040.19
2022-09-24T06:33:30.647Z,101042.03
2022-09-24T06:36:04.514Z,101053.78
2022-09-24T06:38:33.115Z,101051.69
2022-09-24T06:41:03.509Z,101056.94
2022-09-24T06:43:32.443Z,101053.53
2022-09-24T06:46:01.768Z,101052.50
2022-09-24T06:48:31.104Z,101047.88
2022-09-24T06:50:59.898Z,101062.16
2022-09-24T06:53:29.587Z,101055.84
2022-09-24T06:55:59.854Z,101075.41
2022-09-24T06:58:29.519Z,101062.06
2022-09-24T07:01:02.305Z,101070.09
2022-09-24T07:03:33.714Z,101066.59
2022-09-24T07:06:04.542Z,101067.41
2022-09-24T07:08:34.563Z,101078.75
2022-09-24T07:11:03.013Z,101075.13
2022-09-24T07:13:31.517Z,101071.63
2022-09-24T07:16:01.473Z,101085.88
2022-09-24T07:18:29.992Z,101083.22
2022-09-24T07:20:58.511Z,101085.88
2022-09-24T07:23:27.807Z,101093.00
2022-09-24T07:25:58.467Z,101087.91
2022-09-24T07:28:26.901Z,101093.13
2022-09-24T07:30:59.899Z,101003.78
2022-09-24T07:33:28.594Z,101095.09
2022-09-24T07:35:56.872Z,101092.44
2022-09-24T07:38:25.135Z,101101.22
2022-09-24T07:40:54.337Z,101097.59
2022-09-24T07:43:24.116Z,101098.78
2022-09-24T07:45:55.772Z,101105.03
2022-09-24T07:48:24.353Z,101106.88
2022-09-24T07:50:52.865Z,101074.50
2022-09-24T07:53:21.921Z,101099.19
2022-09-24T07:55:50.110Z,101107.03
2022-09-24T07:58:18.513Z,101138.50
2022-09-24T08:00:48.078Z,101126.03
2022-09-24T08:03:16.385Z,101115.34
2022-09-24T08:05:46.115Z,101107.53
2022-09-24T08:08:14.925Z,101126.97
2022-09-24T08:10:43.684Z,101122.63
2022-09-24T08:13:12.217Z,101124.28
2022-09-24T08:15:40.999Z,101133.94
2022-09-24T08:18:11.378Z,101120.06
2022-09-24T08:20:40.556Z,101135.41
2022-09-24T08:23:11.122Z,101113.81
2022-09-24T08:25:39.510Z,101155.06
2022-09-24T08:28:10.613Z,101152.28
2022-09-24T08:30:39.914Z,101162.97
2022-09-24T08:33:08.128Z,101148.66
2022-09-24T08:35:38.342Z,101153.88
2022-09-24T08:38:07.223Z,101151.09
2022-09-24T08:40:46.636Z,101161.56
2022-09-24T08:43:30.632Z,101075.72
2022-09-24T08:46:21.660Z,101167.75
2022-09-24T08:48:54.577Z,101168.75
2022-09-24T08:51:24.511Z,101165.28
2022-09-24T08:53:58.727Z,101171.44
2022-09-24T08:56:31.287Z,101168.69
2022-09-24T08:59:01.890Z,101176.84
2022-09-24T09:01:39.409Z,101182.13
2022-09-24T09:04:24.917Z,101068.72
2022-09-24T09:07:07.557Z,101173.78
2022-09-24T09:09:46.841Z,101179.06
2022-09-24T09:12:19.938Z,101185.31
2022-09-24T09:14:57.243Z,101195.69
2022-09-24T09:17:45.645Z,101184.13
2022-09-24T09:20:20.137Z,101191.38
2022-09-24T09:22:53.385Z,101185.75
2022-09-24T09:25:25.536Z,101193.13
2022-09-24T09:28:01.831Z,101190.44
2022-09-24T09:30:38.531Z,101196.47
2022-09-24T09:33:25.526Z,101199.91
2022-09-24T09:36:03.955Z,101195.63
2022-09-24T09:38:40.678Z,101204.38
2022-09-24T09:41:22.049Z,101202.41
2022-09-24T09:43:50.700Z,101200.44
2022-09-24T09:46:24.653Z,101202.34
2022-09-24T09:48:57.870Z,101196.06
2022-09-24T09:51:28.127Z,101182.13
2022-09-24T09:53:59.988Z,101206.03
2022-09-24T09:56:31.358Z,101208.66
2022-09-24T09:59:18.823Z,101212.09
2022-09-24T10:01:50.516Z,101210.44
2022-09-24T10:04:39.965Z,101209.44
2022-09-24T10:07:11.021Z,101212.09
2022-09-24T10:09:43.184Z,101202.25
2022-09-24T10:12:17.733Z,101198.72
2022-09-24T10:14:46.326Z,101191.03
2022-09-24T10:17:19.012Z,101196.22
2022-09-24T10:19:50.887Z,101210.91
2022-09-24T10:22:24.591Z,101208.06
2022-09-24T10:24:55.986Z,101211.84
2022-09-24T10:27:32.880Z,101207.53
2022-09-24T10:30:21.090Z,101217.16
2022-09-24T10:32:58.421Z,101117.34
2022-09-24T10:35:33.653Z,101207.44
2022-09-24T10:38:03.478Z,101138.50
2022-09-24T10:40:41.080Z,101232.25
2022-09-24T10:43:19.219Z,101223.50
2022-09-24T10:46:16.627Z,101219.06
2022-09-24T10:48:47.087Z,101230.41
2022-09-24T10:51:29.990Z,101227.84
2022-09-24T10:54:29.715Z,101232.03
2022-09-24T10:57:01.785Z,101229.84
2022-09-24T10:59:50.138Z,101224.25
2022-09-24T11:02:46.870Z,101235.63
2022-09-24T11:05:21.240Z,101240.09
2022-09-24T11:08:18.331Z,101242.75
2022-09-24T11:11:19.439Z,101243.50
2022-09-24T11:14:03.972Z,101242.66
2022-09-24T11:17:25.799Z,101249.16
2022-09-24T11:20:17.715Z,101227.16
2022-09-24T11:23:13.934Z,101251.63
2022-09-24T11:25:53.375Z,101250.03
2022-09-24T11:29:01.249Z,101254.50
2022-09-24T11:31:41.799Z,101235.53
2022-09-24T11:34:29.853Z,101248.53
2022-09-24T11:37:21.076Z,101254.84
2022-09-24T11:40:06.593Z,101244.28
2022-09-24T11:42:45.545Z,101259.84
2022-09-24T11:45:43.921Z,101262.81
2022-09-24T11:48:34.435Z,101268.81
2022-09-24T11:51:16.777Z,101262.53
2022-09-24T11:53:53.091Z,101269.53
2022-09-24T11:56:29.310Z,101263.13
2022-09-24T11:59:01.705Z,101247.47
2022-09-24T12:01:34.715Z,101266.59
2022-09-24T12:04:12.831Z,101269.38
2022-09-24T12:06:52.203Z,101265.38
2022-09-24T12:09:28.866Z,101271.72
2022-09-24T12:12:03.769Z,101266.63
2022-09-24T12:14:41.478Z,101257.72
2022-09-24T12:17:18.600Z,101264.22
2022-09-24T12:19:55.671Z,101266.03
2022-09-24T12:22:26.016Z,101247.31
2022-09-24T12:24:58.472Z,101235.03
2022-09-24T12:27:34.579Z,101265.84
2022-09-24T12:30:37.140Z,101254.06
2022-09-24T12:33:13.565Z,101266.25
2022-09-24T12:36:05.680Z,101263.34
2022-09-24T12:38:37.130Z,101271.28
2022-09-24T12:41:25.042Z,101267.56
2022-09-24T12:44:00.263Z,101251.44
2022-09-24T12:46:32.412Z,101259.72
2022-09-24T12:49:01.747Z,101257.63
2022-09-24T12:51:39.662Z,101263.69
2022-09-24T12:54:16.547Z,101259.06
2022-09-24T12:56:45.735Z,101259.94
2022-09-24T12:59:27.935Z,101262.81
2022-09-24T13:01:56.781Z,101268.88
2022-09-24T13:04:30.541Z,101263.41
2022-09-24T13:07:00.229Z,101264.34
2022-09-24T13:09:37.090Z,101269.44
2022-09-24T13:12:21.071Z,101264.72
2022-09-24T13:14:57.528Z,101256.94
2022-09-24T13:17:26.226Z,101263.91
2022-09-24T13:20:00.641Z,101268.03
2022-09-24T13:22:34.629Z,101270.72
2022-09-24T13:25:25.386Z,101267.41
2022-09-24T13:28:03.639Z,101262.88
2022-09-24T13:30:39.917Z,101272.66
2022-09-24T13:33:24.194Z,101273.34
2022-09-24T13:36:07.493Z,101277.25
2022-09-24T13:38:45.068Z,101268.88
2022-09-24T13:41:25.732Z,101276.69
2022-09-24T13:44:01.576Z,101297.19
2022-09-24T13:46:31.604Z,101272.94
2022-09-24T13:49:06.307Z,101275.41
2022-09-24T13:51:38.782Z,101277.31
2022-09-24T13:54:16.929Z,101275.19
2022-09-24T13:57:00.167Z,101275.13
2022-09-24T13:59:29.097Z,101282.75
2022-09-24T14:01:57.590Z,101281.56
2022-09-24T14:04:26.094Z,101278.88
2022-09-24T14:06:56.839Z,101289.75
2022-09-24T14:09:31.461Z,101279.81
2022-09-24T14:12:02.459Z,101283.94
2022-09-24T14:14:35.999Z,101274.16
2022-09-24T14:17:08.297Z,101281.78
2022-09-24T14:19:36.923Z,101284.28
2022-09-24T14:22:13.646Z,101282.34
2022-09-24T14:24:48.928Z,101283.16
2022-09-24T14:27:20.506Z,101276.47
2022-09-24T14:29:54.611Z,101287.22
2022-09-24T14:32:28.960Z,101287.69
2022-09-24T14:35:00.422Z,101286.72
2022-09-24T14:37:32.356Z,101294.78
2022-09-24T14:40:07.764Z,101290.47
2022-09-24T14:42:41.367Z,101296.72
2022-09-24T14:45:11.607Z,101298.38
2022-09-24T14:47:39.989Z,101296.31
2022-09-24T14:50:28.883Z,101300.72
2022-09-24T14:53:00.679Z,101285.78
2022-09-24T14:55:40.457Z,101313.25
2022-09-24T14:58:25.473Z,101309.34
2022-09-24T15:00:56.605Z,101302.09
2022-09-24T15:03:33.593Z,101306.66
2022-09-24T15:06:08.630Z,101310.28
2022-09-24T15:08:37.469Z,101308.16
2022-09-24T15:11:07.743Z,101311.72
2022-09-24T15:13:38.548Z,101304.91
2022-09-24T15:16:19.146Z,101306.38
2022-09-24T15:19:00.044Z,101304.44
2022-09-24T15:21:30.045Z,101318.47
2022-09-24T15:23:58.397Z,101305.19
2022-09-24T15:26:31.772Z,101317.63
2022-09-24T15:29:00.595Z,101309.19
2022-09-24T15:31:29.688Z,101298.53
2022-09-24T15:33:58.064Z,101302.44
2022-09-24T15:36:26.735Z,101317.78
2022-09-24T15:39:02.102Z,101314.06
2022-09-24T15:41:31.993Z,101313.34
2022-09-24T15:44:01.196Z,101315.03
2022-09-24T15:46:29.790Z,101314.94
2022-09-24T15:48:58.129Z,101312.00
2022-09-24T15:51:26.467Z,101315.16
2022-09-24T15:53:54.750Z,101321.50
2022-09-24T15:56:22.960Z,101325.22
2022-09-24T15:58:52.621Z,101324.91
2022-09-24T16:01:21.027Z,101324.69
2022-09-24T16:03:49.326Z,101328.19
2022-09-24T16:06:17.623Z,101332.38
2022-09-24T16:08:45.887Z,101330.50
2022-09-24T16:11:14.179Z,101335.53
2022-09-24T16:13:42.408Z,101336.50
2022-09-24T16:16:12.684Z,101340.03
2022-09-24T16:18:41.316Z,101332.78
2022-09-24T16:21:10.273Z,101340.00
2022-09-24T16:23:38.555Z,101351.72
2022-09-24T16:26:07.619Z,101339.03
2022-09-24T16:28:36.926Z,101339.78
2022-09-24T16:31:07.552Z,101349.69
2022-09-24T16:33:40.851Z,101354.34
2022-09-24T16:36:10.415Z,101335.06
2022-09-24T16:38:39.916Z,101360.97
2022-09-24T16:41:10.581Z,101351.25
2022-09-24T16:43:38.982Z,101373.78
2022-09-24T16:46:10.200Z,101355.25
2022-09-24T16:48:40.610Z,101366.34
2022-09-24T16:51:11.592Z,101368.25
2022-09-24T16:53:39.970Z,101364.25
2022-09-24T16:56:11.151Z,101358.81
2022-09-24T16:58:39.363Z,101366.50
2022-09-24T17:01:09.730Z,101366.38
2022-09-24T17:03:39.872Z,101366.81
2022-09-24T17:06:09.398Z,101375.81
2022-09-24T17:08:52.140Z,101378.50
2022-09-24T17:11:21.614Z,101375.16
2022-09-24T17:13:50.218Z,101386.31
2022-09-24T17:16:19.092Z,101384.28
2022-09-24T17:18:49.472Z,101390.72
2022-09-24T17:21:18.050Z,101351.53
2022-09-24T17:23:46.251Z,101386.75
2022-09-24T17:26:17.701Z,101396.41
2022-09-24T17:28:48.020Z,101392.13
2022-09-24T17:31:21.308Z,101396.88
2022-09-24T17:33:57.027Z,101398.91
2022-09-24T17:36:26.455Z,101405.22
2022-09-24T17:38:56.138Z,101413.19
2022-09-24T17:41:24.831Z,101370.13
2022-09-24T17:43:53.134Z,101414.28
2022-09-24T17:46:23.622Z,101413.44
2022-09-24T17:48:55.954Z,101418.91
2022-09-24T17:51:27.008Z,101414.50
2022-09-24T17:53:57.135Z,101418.13
2022-09-24T17:56:28.459Z,101304.88
2022-09-24T17:58:57.788Z,101416.50
2022-09-24T18:01:28.868Z,101424.84
2022-09-24T18:04:00.378Z,101427.03
2022-09-24T18:06:33.116Z,101434.88
2022-09-24T18:09:02.454Z,101435.72
2022-09-24T18:11:33.266Z,101416.41
2022-09-24T18:14:03.500Z,101442.91
2022-09-24T18:16:34.005Z,101444.81
2022-09-24T18:19:04.515Z,101400.03
2022-09-24T18:21:38.034Z,101455.66
2022-09-24T18:24:06.986Z,101447.72
2022-09-24T18:26:37.563Z,101455.81
2022-09-24T18:29:10.218Z,101449.63
2022-09-24T18:31:39.668Z,101451.56
2022-09-24T18:34:13.167Z,101462.31
2022-09-24T18:36:44.008Z,101472.34
2022-09-24T18:39:21.902Z,101459.63
2022-09-24T18:41:53.344Z,101464.41
2022-09-24T18:44:21.678Z,101296.44
2022-09-24T18:46:50.134Z,101467.09
2022-09-24T18:49:20.372Z,101467.09
2022-09-24T18:51:49.240Z,101468.81
2022-09-24T18:54:18.348Z,101465.34
2022-09-24T18:56:47.627Z,101468.34
2022-09-24T18:59:18.804Z,101458.56
2022-09-24T19:01:48.901Z,101470.06
2022-09-24T19:04:19.353Z,101466.59
2022-09-24T19:06:49.842Z,101467.53
2022-09-24T19:09:20.124Z,101475.63
2022-09-24T19:11:49.172Z,101478.34
2022-09-24T19:14:19.031Z,101453.91
2022-09-24T19:16:48.167Z,101485.59
2022-09-24T19:19:16.891Z,101476.94
2022-09-24T19:21:46.845Z,101488.44
2022-09-24T19:24:15.129Z,101488.44
2022-09-24T19:26:43.611Z,101486.72
2022-09-24T19:29:12.221Z,101489.34
2022-09-24T19:31:43.379Z,101485.06
2022-09-24T19:34:14.446Z,101473.75
2022-09-24T19:36:45.222Z,101501.97
2022-09-24T19:39:16.902Z,101498.63
2022-09-24T19:41:45.979Z,101497.81
2022-09-24T19:44:16.554Z,101504.06
2022-09-24T19:46:45.575Z,101500.47
2022-09-24T19:49:14.500Z,101501.34
2022-09-24T19:51:43.163Z,101501.41
2022-09-24T19:54:11.839Z,101506.00
2022-09-24T19:56:42.104Z,101381.88
2022-09-24T19:59:13.260Z,101511.34
2022-09-24T20:01:42.450Z,101510.34
2022-09-24T20:04:11.095Z,101513.22
2022-09-24T20:06:39.855Z,101515.88
2022-09-24T20:09:09.215Z,101507.03
2022-09-24T20:11:39.578Z,101517.72
2022-09-24T20:14:11.379Z,101514.13
2022-09-24T20:16:42.775Z,101504.53
2022-09-24T20:19:13.672Z,101524.06
2022-09-24T20:21:42.211Z,101533.84
2022-09-24T20:24:13.532Z,101517.00
2022-09-24T20:26:59.234Z,101518.88
2022-09-24T20:29:28.865Z,101525.13
2022-09-24T20:31:57.754Z,101526.28
2022-09-24T20:34:33.332Z,101527.47
2022-09-24T20:37:02.012Z,101528.03
2022-09-24T20:39:31.290Z,101415.44
2022-09-24T20:42:02.181Z,101537.94
2022-09-24T20:44:32.250Z,101514.84
2022-09-24T20:47:01.058Z,101527.22
2022-09-24T20:49:29.959Z,101523.88
2022-09-24T20:51:58.442Z,101535.38
2022-09-24T20:54:28.606Z,101538.84
2022-09-24T20:56:57.479Z,101539.75
2022-09-24T20:59:27.034Z,101535.31
2022-09-24T21:01:56.775Z,101538.00
2022-09-24T21:04:25.475Z,101537.31
2022-09-24T21:06:54.607Z,101526.66
2022-09-24T21:09:23.131Z,101529.34
2022-09-24T21:11:53.139Z,101531.16
2022-09-24T21:14:21.956Z,101527.66
2022-09-24T21:16:50.217Z,101524.19
2022-09-24T21:19:20.142Z,101532.97
2022-09-24T21:21:48.442Z,101530.47
2022-09-24T21:24:17.442Z,101529.56
2022-09-24T21:26:45.989Z,101526.38
2022-09-24T21:29:17.373Z,101536.09
2022-09-24T21:31:47.668Z,101531.53
2022-09-24T21:34:20.642Z,101536.88
2022-09-24T21:36:49.207Z,101538.78
2022-09-24T21:39:19.971Z,101545.09
2022-09-24T21:41:54.901Z,101544.28
2022-09-24T21:44:23.221Z,101522.34
2022-09-24T21:46:52.446Z,101533.06
2022-09-24T21:49:22.817Z,101533.88
2022-09-24T21:51:55.629Z,101537.53
2022-09-24T21:54:24.491Z,101515.53
2022-09-24T21:56:54.311Z,101540.31
2022-09-24T21:59:40.171Z,101535.06
2022-09-24T22:02:08.586Z,101540.38
2022-09-24T22:04:38.236Z,101540.31
2022-09-24T22:07:06.513Z,101535.06
2022-09-24T22:09:35.031Z,101534.09
2022-09-24T22:12:05.531Z,101535.00
2022-09-24T22:14:35.112Z,101537.69
2022-09-24T22:17:03.870Z,101543.81
2022-09-24T22:19:32.386Z,101542.00
2022-09-24T22:22:01.991Z,101534.09
2022-09-24T22:24:30.607Z,101542.91
2022-09-24T22:26:59.003Z,101538.44
2022-09-24T22:29:27.316Z,101534.03
2022-09-24T22:31:55.640Z,101541.13
2022-09-24T22:34:49.619Z,101542.88
2022-09-24T22:37:19.221Z,101544.66
2022-09-24T22:39:47.481Z,101550.09
2022-09-24T22:42:15.863Z,101542.03
2022-09-24T22:44:44.094Z,101549.22
2022-09-24T22:47:12.251Z,101540.44
2022-09-24T22:49:40.535Z,101549.34
2022-09-24T22:52:08.808Z,101542.34
2022-09-24T22:54:38.407Z,101541.44
2022-09-24T22:57:06.622Z,101544.13
2022-09-24T22:59:34.957Z,101545.00
2022-09-24T23:02:03.171Z,101538.84
2022-09-24T23:04:33.162Z,101535.31
2022-09-24T23:07:01.734Z,101543.25
2022-09-24T23:09:30.087Z,101538.03
2022-09-24T23:11:59.634Z,101538.84
2022-09-24T23:14:27.960Z,101540.66
2022-09-24T23:16:57.612Z,101542.38
2022-09-24T23:19:46.687Z,101541.56
2022-09-24T23:22:14.909Z,101535.38
2022-09-24T23:24:43.906Z,101541.72
2022-09-24T23:27:13.651Z,101536.38
2022-09-24T23:29:41.934Z,101536.31
2022-09-24T23:32:10.295Z,101540.75
2022-09-24T23:34:38.576Z,101530.06
2022-09-24T23:37:07.135Z,101539.13
2022-09-24T23:39:35.506Z,101536.34
2022-09-24T23:42:03.888Z,101547.00
2022-09-24T23:44:33.957Z,101532.81
2022-09-24T23:47:02.918Z,101537.22
2022-09-24T23:49:31.375Z,101531.88
2022-09-24T23:51:59.782Z,101531.97
2022-09-24T23:54:29.219Z,101537.25
2022-09-24T23:56:57.497Z,101529.28
2022-09-24T23:59:25.682Z,101536.31
